Time;durP1;ratioP1;P1;durP2;ratioP2;P2;SDS_P1;SDS_P2;PMS_P1;PMS_P2;Temp;Humidity;BMP_temperature;BMP_pressure;BME280_temperature;BME280_humidity;BME280_pressure;Samples;Min_cycle;Max_cycle;Signal;HPM_P1;HPM_P2
2023/10/09 08:36:22;;;;;;;;;17.75;12.25;;;;;22.30;49.50;101839.44;5119708;27;45280;-58
2023/10/09 08:38:48;;;;;;;;;13.75;9.50;;;;;22.30;49.58;101840.28;5101678;27;45501;-59
2023/10/09 08:41:17;;;;;;;;;13.00;11.75;;;;;22.31;49.22;101846.44;5110797;27;45451;-58
2023/10/09 08:43:50;;;;;;;;;19.75;11.00;;;;;22.32;49.17;101848.13;5103769;27;45364;-56
2023/10/09 08:46:18;;;;;;;;;14.50;10.00;;;;;22.35;49.49;101855.91;5105768;27;45429;-59
2023/10/09 08:48:45;;;;;;;;;14.50;11.50;;;;;22.35;49.63;101847.97;5119527;27;45480;-56
2023/10/09 08:51:11;;;;;;;;;14.25;10.50;;;;;22.38;49.60;101861.03;5118609;27;46062;-52
2023/10/09 08:53:42;;;;;;;;;17.75;10.50;;;;;22.37;49.51;101854.03;5119306;27;45451;-58
2023/10/09 08:56:14;;;;;;;;;15.75;11.00;;;;;22.34;49.18;101847.13;5118684;27;45395;-56
2023/10/09 08:58:40;;;;;;;;;13.50;9.00;;;;;22.40;49.48;101861.84;5119475;27;45175;-59
2023/10/09 09:01:05;;;;;;;;;10.25;9.75;;;;;22.40;49.66;101851.25;5118465;27;46591;-51
2023/10/09 09:03:40;;;;;;;;;13.75;12.00;;;;;22.40;49.75;101851.25;5100215;27;45858;-53
2023/10/09 09:06:06;;;;;;;;;20.00;11.50;;;;;22.43;49.33;101853.81;5119132;27;45293;-52
2023/10/09 09:08:36;;;;;;;;;16.00;11.00;;;;;22.43;49.66;101861.72;5100636;27;45548;-54
2023/10/09 09:11:11;;;;;;;;;12.75;11.25;;;;;22.44;49.33;101858.13;5118581;27;46553;-58
2023/10/09 09:13:50;;;;;;;;;14.00;12.00;;;;;22.44;49.26;101857.28;5100300;27;45881;-59
2023/10/09 09:16:17;;;;;;;;;12.25;11.75;;;;;22.45;49.60;101854.56;5118905;27;45436;-59
2023/10/09 09:18:51;;;;;;;;;15.50;10.00;;;;;22.46;49.30;101856.28;5119139;27;45582;-60
2023/10/09 09:21:24;;;;;;;;;11.25;11.00;;;;;22.46;49.58;101858.91;5118615;27;46982;-55
2023/10/09 09:23:57;;;;;;;;;16.00;14.25;;;;;22.46;48.94;101861.56;5098245;27;45374;-57
2023/10/09 09:26:37;;;;;;;;;11.00;10.00;;;;;22.47;49.17;101858.00;5098795;27;45338;-57
2023/10/09 09:29:05;;;;;;;;;13.25;11.25;;;;;22.47;49.21;101858.00;5118326;27;45176;-55
2023/10/09 09:31:37;;;;;;;;;14.50;11.25;;;;;22.46;49.03;101856.28;5118066;27;45819;-51
2023/10/09 09:34:12;;;;;;;;;14.50;11.00;;;;;22.48;49.24;101859.72;5118397;27;45859;-57
2023/10/09 09:36:37;;;;;;;;;13.00;12.25;;;;;22.48;49.35;101854.41;5118504;27;46550;-51
2023/10/09 09:39:04;;;;;;;;;10.75;8.00;;;;;22.49;49.24;101856.13;5118514;27;45274;-57
2023/10/09 09:41:33;;;;;;;;;15.00;12.00;;;;;22.48;48.96;101854.41;5117968;27;46082;-56
2023/10/09 09:44:04;;;;;;;;;17.50;13.00;;;;;22.49;49.24;101853.50;5118377;27;45779;-57
2023/10/09 09:46:33;;;;;;;;;14.25;9.50;;;;;22.49;48.94;101853.50;5118189;27;45432;-58
2023/10/09 09:49:07;;;;;;;;;13.00;11.00;;;;;22.50;48.46;101849.94;5118631;27;45513;-52
2023/10/09 09:51:32;;;;;;;;;12.25;10.75;;;;;22.50;48.53;101849.94;5091566;27;45550;-53
2023/10/09 09:53:58;;;;;;;;;9.25;7.75;;;;;22.51;48.29;101854.28;5079539;27;45440;-50
2023/10/09 09:56:25;;;;;;;;;12.00;10.75;;;;;22.53;48.62;101851.56;5098177;27;45364;-54
2023/10/09 09:58:55;;;;;;;;;12.00;7.00;;;;;22.54;49.13;101855.91;5097789;27;45404;-51
2023/10/09 10:01:26;;;;;;;;;11.50;10.00;;;;;22.55;48.58;101853.19;5097387;27;47395;-57
2023/10/09 10:03:58;;;;;;;;;13.50;10.00;;;;;22.58;48.62;101853.97;5097913;27;45877;-55
2023/10/09 10:06:28;;;;;;;;;8.00;8.00;;;;;22.59;47.99;101853.06;5098441;27;45434;-58
2023/10/09 10:08:54;;;;;;;;;12.75;10.00;;;;;22.61;47.57;101853.84;5096821;27;45554;-57
2023/10/09 10:11:54;;;;;;;;;8.75;7.75;;;;;22.60;46.35;101847.69;5096145;27;47058;-52
2023/10/09 10:14:28;;;;;;;;;12.50;8.75;;;;;22.61;46.20;101854.69;5097705;27;45910;-52
2023/10/09 10:17:21;;;;;;;;;13.25;9.00;;;;;22.60;46.04;101852.97;5097704;27;45332;-57
2023/10/09 10:22:47;;;;;;;;;9.25;8.00;;;;;22.61;45.31;101846.75;5097268;27;45478;-55
2023/10/09 10:25:32;;;;;;;;;8.00;8.00;;;;;22.63;45.66;101852.00;5097490;27;45993;-55
2023/10/09 10:28:17;;;;;;;;;11.00;8.50;;;;;22.62;45.28;101850.28;5097717;27;45357;-57
2023/10/09 10:30:46;;;;;;;;;10.50;9.00;;;;;22.62;45.15;101850.28;5097211;27;45192;-58
2023/10/09 10:33:17;;;;;;;;;11.75;7.50;;;;;22.62;45.29;101852.91;5078906;27;46119;-55
2023/10/09 10:38:34;;;;;;;;;8.00;8.00;;;;;22.64;44.88;101853.69;5097418;27;45391;-58
2023/10/09 10:41:22;;;;;;;;;11.25;7.00;;;;;22.64;45.34;101849.25;5097808;27;45503;-54
2023/10/09 10:43:54;;;;;;;;;9.75;7.00;;;;;22.65;44.87;101850.97;5097072;27;46205;-54
2023/10/09 10:48:49;;;;;;;;;6.50;6.00;;;;;22.66;44.73;101851.81;5097252;27;45234;-56
2023/10/09 10:51:15;;;;;;;;;9.25;7.25;;;;;22.67;44.64;101850.88;5097354;27;45407;-55
2023/10/09 10:53:52;;;;;;;;;8.50;6.75;;;;;22.66;44.71;101842.13;5096945;27;45380;-57
2023/10/09 10:56:18;;;;;;;;;7.25;6.00;;;;;22.66;44.13;101835.97;5096982;27;45279;-57
2023/10/09 11:04:24;;;;;;;;;7.75;7.75;;;;;22.69;44.10;101841.09;5096930;27;45471;-53
2023/10/09 11:06:51;;;;;;;;;11.25;7.50;;;;;22.70;43.83;101837.53;5096656;27;45688;-49
2023/10/09 11:09:23;;;;;;;;;5.25;4.75;;;;;22.70;43.37;101829.59;5097010;27;45455;-49
2023/10/09 11:11:49;;;;;;;;;6.75;6.00;;;;;22.71;43.83;101833.97;5096999;27;45263;-48
2023/10/09 11:14:15;;;;;;;;;11.50;7.00;;;;;22.70;43.83;101837.53;5096660;27;46383;-49
2023/10/09 11:16:41;;;;;;;;;8.00;6.00;;;;;22.70;44.01;101833.13;5096832;27;45248;-59
2023/10/09 11:24:33;;;;;;;;;6.50;4.75;;;;;22.68;43.83;101821.78;5096589;27;45265;-56
2023/10/09 11:27:05;;;;;;;;;9.00;6.00;;;;;22.73;43.94;101823.31;5096870;27;45681;-54
2023/10/09 11:32:17;;;;;;;;;7.75;7.50;;;;;22.73;43.81;101826.81;5096733;27;45411;-52
2023/10/09 11:34:51;;;;;;;;;7.25;6.00;;;;;22.74;43.35;101827.66;5096267;27;46956;-58
2023/10/09 11:39:56;;;;;;;;;8.25;4.75;;;;;22.77;43.82;101832.81;5096514;27;45512;-55
2023/10/09 11:42:48;;;;;;;;;8.50;6.00;;;;;22.77;43.88;101824.88;5096600;27;45549;-50
2023/10/09 11:45:28;;;;;;;;;8.00;7.00;;;;;22.78;43.62;101819.50;5099819;27;46174;-48
2023/10/09 11:48:00;;;;;;;;;8.75;6.00;;;;;22.77;43.61;101817.78;5099898;27;45672;-47
2023/10/09 11:50:55;;;;;;;;;8.00;6.50;;;;;22.79;43.58;101821.22;5100006;27;45285;-50
2023/10/09 11:55:49;;;;;;;;;8.00;4.50;;;;;22.77;43.28;101815.16;5099750;27;46159;-48
2023/10/09 11:58:22;;;;;;;;;7.00;7.00;;;;;22.80;43.02;101815.00;5099983;27;45657;-50
2023/10/09 12:00:51;;;;;;;;;10.25;7.00;;;;;22.79;43.48;101800.06;5099636;27;45233;-57
2023/10/09 12:03:21;;;;;;;;;7.50;6.00;;;;;22.81;42.85;101802.66;5099847;27;45380;-54
2023/10/09 12:05:47;;;;;;;;;6.50;4.50;;;;;22.80;43.33;101800.94;5099351;27;46206;-52
2023/10/09 12:08:15;;;;;;;;;8.00;6.75;;;;;22.83;43.21;101800.78;5099610;27;45266;-57
2023/10/09 12:10:42;;;;;;;;;11.75;8.00;;;;;22.82;43.21;101799.94;5099633;27;45328;-56
2023/10/09 12:13:07;;;;;;;;;6.50;6.50;;;;;22.83;43.58;101806.94;5099670;27;45427;-54
2023/10/09 12:15:39;;;;;;;;;5.25;5.25;;;;;22.84;43.26;101797.19;5099540;27;45799;-56
2023/10/09 12:18:14;;;;;;;;;7.75;6.25;;;;;22.85;42.62;101797.16;5099482;27;45836;-55
2023/10/09 12:20:40;;;;;;;;;6.50;5.00;;;;;22.85;43.12;101783.94;5099382;27;45392;-56
2023/10/09 12:23:05;;;;;;;;;5.75;5.00;;;;;22.85;42.67;101777.78;5099637;27;45429;-52
2023/10/09 12:25:35;;;;;;;;;8.25;6.25;;;;;22.85;41.60;101777.78;5099031;27;46921;-53
2023/10/09 12:28:02;;;;;;;;;5.50;5.50;;;;;22.85;40.85;101783.94;5099045;27;45180;-51
2023/10/09 12:30:31;;;;;;;;;5.75;5.75;;;;;22.85;41.34;101778.66;5099260;27;45273;-53
2023/10/09 12:32:57;;;;;;;;;6.00;6.00;;;;;22.83;41.37;101772.56;5099485;27;45558;-54
2023/10/09 12:35:26;;;;;;;;;9.00;5.00;;;;;22.87;40.64;101772.44;5080533;27;48350;-52
2023/10/09 12:37:54;;;;;;;;;5.25;5.25;;;;;22.87;41.01;101765.34;5080610;27;45371;-50
2023/10/09 12:40:29;;;;;;;;;7.75;4.50;;;;;22.87;41.21;101767.97;5099037;27;45344;-49
2023/10/09 12:42:58;;;;;;;;;5.75;4.75;;;;;22.84;40.78;101754.91;5099174;27;45381;-51
2023/10/09 12:45:32;;;;;;;;;7.75;5.00;;;;;22.87;40.55;101756.56;5099000;27;46379;-50
2023/10/09 12:48:03;;;;;;;;;7.50;5.75;;;;;22.88;40.92;101747.69;5098879;27;45801;-51
2023/10/09 12:50:33;;;;;;;;;8.00;6.00;;;;;22.89;40.93;101747.63;5099039;27;45342;-50
2023/10/09 12:53:02;;;;;;;;;6.50;5.75;;;;;22.85;40.50;101744.28;5099294;27;45937;-50
2023/10/09 12:55:31;;;;;;;;;10.75;7.50;;;;;22.85;40.29;101746.94;5098492;27;47102;-52
2023/10/09 12:58:00;;;;;;;;;4.00;4.00;;;;;22.87;40.71;101738.91;5098955;27;45796;-53
2023/10/09 13:00:26;;;;;;;;;7.25;5.00;;;;;22.87;40.54;101740.72;5098632;27;45351;-54
2023/10/09 13:02:52;;;;;;;;;6.75;6.00;;;;;22.85;40.63;101744.28;5099079;27;45487;-53
2023/10/09 13:05:25;;;;;;;;;6.25;4.75;;;;;22.85;40.74;101739.00;5098656;27;45511;-53
2023/10/09 13:07:51;;;;;;;;;7.25;6.00;;;;;22.85;40.57;101733.72;5098507;27;45356;-54
2023/10/09 13:10:16;;;;;;;;;6.25;6.00;;;;;22.88;40.21;101729.16;5098779;27;45313;-50
2023/10/09 13:12:42;;;;;;;;;6.25;5.25;;;;;22.87;40.16;101733.63;5098681;27;45537;-49
2023/10/09 13:15:11;;;;;;;;;6.75;4.00;;;;;22.85;40.55;101725.78;5098590;27;54537;-54
2023/10/09 13:17:37;;;;;;;;;4.25;4.25;;;;;22.85;40.44;101722.25;5098925;27;45299;-54
2023/10/09 13:20:12;;;;;;;;;5.50;4.25;;;;;22.87;39.96;101733.63;5098621;27;45475;-51
2023/10/09 13:22:41;;;;;;;;;2.50;1.00;;;;;22.86;39.78;101726.63;5098850;27;45475;-53
2023/10/09 13:25:16;;;;;;;;;6.50;5.50;;;;;22.85;39.70;101730.19;5098607;27;45444;-53
2023/10/09 13:27:50;;;;;;;;;6.25;6.00;;;;;22.85;40.07;101722.25;5098497;27;45334;-54
2023/10/09 13:30:21;;;;;;;;;4.25;4.00;;;;;22.87;39.77;101730.13;5098581;27;45231;-54
2023/10/09 13:32:49;;;;;;;;;5.25;5.25;;;;;22.86;39.93;101726.63;5098481;27;45540;-56
2023/10/09 13:35:16;;;;;;;;;7.00;5.00;;;;;22.87;40.46;101727.50;5098126;27;47029;-49
2023/10/09 13:37:41;;;;;;;;;8.00;5.00;;;;;22.87;40.02;101722.22;5098203;27;45300;-52
2023/10/09 13:40:09;;;;;;;;;8.50;5.50;;;;;22.85;40.12;101715.22;5098525;27;45288;-52
2023/10/09 13:42:35;;;;;;;;;7.75;6.25;;;;;22.82;39.52;101715.34;5098319;27;45652;-50
2023/10/09 13:45:07;;;;;;;;;6.50;4.00;;;;;22.86;39.45;101713.41;5079495;27;47188;-50
2023/10/09 13:47:33;;;;;;;;;4.25;4.25;;;;;22.84;40.07;101713.50;5097861;27;45278;-53
2023/10/09 13:50:00;;;;;;;;;6.75;5.00;;;;;22.87;39.97;101716.91;5098056;27;45314;-51
2023/10/09 13:52:26;;;;;;;;;4.25;4.00;;;;;22.87;39.76;101712.47;5098057;27;45294;-54
2023/10/09 13:54:53;;;;;;;;;6.75;6.25;;;;;22.85;40.33;101707.28;5097896;27;47030;-51
2023/10/09 13:57:22;;;;;;;;;5.00;4.50;;;;;22.87;40.57;101711.63;5097810;27;45816;-53
2023/10/09 13:59:50;;;;;;;;;7.75;4.50;;;;;22.85;40.18;101702.00;5097935;27;45314;-52
2023/10/09 14:02:17;;;;;;;;;6.75;4.50;;;;;22.89;40.14;101701.81;5097694;27;45403;-54
2023/10/09 14:04:43;;;;;;;;;4.75;4.00;;;;;22.90;40.29;101703.53;5097894;27;45583;-54
2023/10/09 14:07:09;;;;;;;;;6.25;5.25;;;;;22.90;40.37;101700.88;5097240;27;45306;-53
2023/10/09 14:12:13;;;;;;;;;5.00;5.00;;;;;22.89;40.15;101697.41;5098305;27;45317;-50
2023/10/09 14:14:49;;;;;;;;;5.25;4.00;;;;;22.89;40.69;101707.97;5097720;27;46334;-49
2023/10/09 14:17:28;;;;;;;;;3.75;3.75;;;;;22.91;40.75;101699.94;5097640;27;45669;-50
2023/10/09 14:19:55;;;;;;;;;7.00;6.75;;;;;22.90;40.82;101696.47;5097624;27;45440;-51
2023/10/09 14:22:29;;;;;;;;;4.50;4.50;;;;;22.90;40.50;101687.66;5097777;27;45380;-53
2023/10/09 14:24:59;;;;;;;;;5.00;5.00;;;;;22.91;40.62;101684.09;5097737;27;46413;-58
2023/10/09 14:27:26;;;;;;;;;5.25;2.75;;;;;22.92;40.42;101681.38;5097732;27;46277;-49
2023/10/09 14:29:58;;;;;;;;;5.00;5.00;;;;;22.93;40.66;101679.59;5097604;27;45403;-49
2023/10/09 14:32:34;;;;;;;;;4.75;2.50;;;;;22.92;40.99;101680.50;5097696;27;45807;-56
2023/10/09 14:35:02;;;;;;;;;7.00;4.00;;;;;22.92;41.00;101672.59;5097369;27;45700;-54
2023/10/09 14:37:28;;;;;;;;;8.00;5.75;;;;;22.93;40.83;101680.41;5097281;27;45970;-58
2023/10/09 14:39:53;;;;;;;;;4.50;4.25;;;;;22.94;40.41;101687.41;5097416;27;45390;-54
2023/10/09 14:42:20;;;;;;;;;7.00;6.00;;;;;22.94;41.03;101682.13;5097387;27;45320;-51
2023/10/09 14:44:46;;;;;;;;;7.25;6.00;;;;;22.94;41.04;101681.28;5097147;27;46351;-53
2023/10/09 14:47:14;;;;;;;;;7.75;5.75;;;;;22.95;40.73;101688.28;5097528;27;45402;-53
2023/10/09 14:49:46;;;;;;;;;7.00;5.50;;;;;22.95;40.87;101690.94;5097237;27;45321;-54
2023/10/09 14:52:16;;;;;;;;;6.75;5.25;;;;;22.96;40.92;101684.72;5097576;27;45388;-51
2023/10/09 14:54:44;;;;;;;;;5.75;4.50;;;;;22.94;41.16;101681.28;5079023;27;48586;-53
2023/10/09 14:57:11;;;;;;;;;5.50;5.50;;;;;22.96;41.08;101676.78;5097193;27;45813;-53
2023/10/09 14:59:37;;;;;;;;;6.50;5.25;;;;;22.94;41.15;101679.50;5116163;27;45394;-54
2023/10/09 15:02:02;;;;;;;;;8.25;6.75;;;;;22.95;40.80;101677.72;5117502;27;45364;-54
2023/10/09 15:04:28;;;;;;;;;5.00;5.00;;;;;22.94;40.97;101681.28;5117339;27;46080;-52
2023/10/09 15:06:53;;;;;;;;;5.00;5.00;;;;;22.96;40.95;101679.44;5117449;27;45342;-53
2023/10/09 15:09:22;;;;;;;;;8.50;5.25;;;;;22.95;41.22;101678.56;5117610;27;45361;-53
2023/10/09 15:11:49;;;;;;;;;9.00;6.25;;;;;22.95;41.16;101677.72;5117573;27;45939;-53
2023/10/09 15:14:15;;;;;;;;;7.75;6.00;;;;;22.95;40.87;101686.50;5099122;27;46105;-53
2023/10/09 15:16:42;;;;;;;;;10.00;5.50;;;;;22.95;41.33;101686.50;5117195;27;45710;-53
2023/10/09 15:19:10;;;;;;;;;6.00;5.00;;;;;22.96;41.23;101684.72;5119858;27;45265;-54
2023/10/09 15:21:43;;;;;;;;;10.50;7.75;;;;;22.95;40.95;101683.00;5110187;27;45316;-54
2023/10/09 15:24:10;;;;;;;;;7.00;7.00;;;;;22.95;41.48;101683.00;5109035;27;45478;-53
2023/10/09 15:26:35;;;;;;;;;8.75;8.00;;;;;22.94;41.12;101670.72;5091548;27;45451;-52
2023/10/09 15:29:03;;;;;;;;;8.50;7.00;;;;;22.96;41.00;101668.84;5110623;27;45440;-54
2023/10/09 15:31:31;;;;;;;;;8.25;6.25;;;;;22.96;41.08;101666.22;5111112;27;45481;-50
2023/10/09 15:33:57;;;;;;;;;8.00;8.00;;;;;22.99;41.33;101663.38;5105325;27;46970;-53
2023/10/09 15:36:25;;;;;;;;;7.00;6.75;;;;;22.98;41.14;101667.00;5100181;27;45789;-51
2023/10/09 15:38:50;;;;;;;;;7.50;5.00;;;;;22.99;41.39;101663.38;5100253;27;45463;-53
2023/10/09 15:41:17;;;;;;;;;6.00;5.00;;;;;22.98;41.46;101667.00;5100589;27;45617;-52
2023/10/09 15:43:44;;;;;;;;;9.50;7.00;;;;;22.96;41.40;101664.41;5099869;27;46499;-49
2023/10/09 15:46:16;;;;;;;;;9.50;7.00;;;;;22.98;41.42;101673.13;5099986;27;45316;-51
2023/10/09 15:48:43;;;;;;;;;8.00;6.50;;;;;22.98;40.70;101673.13;5100082;27;45375;-53
2023/10/09 15:51:14;;;;;;;;;6.75;5.75;;;;;22.98;40.96;101669.63;5100092;27;45452;-51
2023/10/09 15:53:44;;;;;;;;;6.00;5.75;;;;;22.97;40.75;101665.28;5099766;27;47015;-53
2023/10/09 15:56:13;;;;;;;;;8.00;7.00;;;;;22.94;41.00;101657.50;5099911;27;45791;-55
2023/10/09 15:58:43;;;;;;;;;6.50;5.75;;;;;22.99;40.64;101673.97;5100038;27;45298;-52
2023/10/09 16:01:20;;;;;;;;;7.75;5.00;;;;;22.99;40.46;101669.53;5099797;27;45392;-53
2023/10/09 16:03:47;;;;;;;;;8.25;7.25;;;;;22.99;40.58;101666.03;5099091;27;45249;-52
2023/10/09 16:06:15;;;;;;;;;10.00;7.00;;;;;22.99;40.23;101666.91;5098851;27;45391;-54
2023/10/09 16:08:45;;;;;;;;;5.25;5.25;;;;;22.99;40.04;101658.09;5114708;27;45416;-51
2023/10/09 16:11:12;;;;;;;;;6.50;6.00;;;;;23.00;39.86;101665.09;5120461;27;45747;-53
2023/10/09 16:13:38;;;;;;;;;6.00;6.00;;;;;22.99;40.50;101669.53;5101257;27;46213;-51
2023/10/09 16:16:07;;;;;;;;;4.50;4.50;;;;;23.00;40.36;101663.31;5101431;27;45764;-52
2023/10/09 16:18:34;;;;;;;;;6.00;6.00;;;;;23.01;40.41;101669.44;5119849;27;45325;-51
2023/10/09 16:21:01;;;;;;;;;9.25;7.00;;;;;23.01;39.97;101664.16;5120270;27;45395;-53
2023/10/09 16:23:27;;;;;;;;;8.00;7.00;;;;;22.99;40.71;101658.97;5119248;27;46195;-52
2023/10/09 16:25:52;;;;;;;;;9.00;6.00;;;;;23.00;40.57;101662.44;5119974;27;45337;-54
2023/10/09 16:28:18;;;;;;;;;5.33;5.33;;;;;22.99;40.95;101661.59;5119416;27;57413;-53
2023/10/09 16:30:43;;;;;;;;;8.00;7.00;;;;;23.01;40.73;101670.31;5119385;27;45214;-54
2023/10/09 16:33:08;;;;;;;;;6.33;5.67;;;;;23.00;40.75;101663.31;5118413;27;65381;-50
2023/10/09 16:35:37;;;;;;;;;5.75;5.25;;;;;23.01;40.68;101666.81;5119467;27;45313;-53
2023/10/09 16:38:05;;;;;;;;;5.50;5.50;;;;;23.00;40.81;101662.44;5101144;27;45480;-50
2023/10/09 16:40:33;;;;;;;;;7.50;6.00;;;;;23.00;40.68;101660.69;5119910;27;45207;-53
2023/10/09 16:43:00;;;;;;;;;7.00;6.00;;;;;23.00;40.55;101659.81;5119152;27;46362;-54
2023/10/09 16:45:26;;;;;;;;;6.50;6.00;;;;;23.01;40.55;101666.81;5101108;27;46050;-52
2023/10/09 16:47:54;;;;;;;;;12.25;8.00;;;;;23.01;40.25;101661.50;5119837;27;45426;-49
2023/10/09 16:50:25;;;;;;;;;9.25;8.25;;;;;23.01;40.55;101657.09;5120100;27;45541;-52
2023/10/09 16:52:51;;;;;;;;;9.25;8.00;;;;;23.01;40.84;101664.16;5119160;27;46319;-54
2023/10/09 16:55:19;;;;;;;;;6.50;4.50;;;;;23.00;40.83;101665.09;5119449;27;45912;-52
2023/10/09 16:57:46;;;;;;;;;11.00;8.25;;;;;23.02;40.93;101671.16;5119339;27;45354;-53
2023/10/09 17:00:28;;;;;;;;;15.00;8.00;;;;;23.02;40.61;101673.81;5119274;27;45451;-52
2023/10/09 17:02:57;;;;;;;;;10.75;8.50;;;;;23.01;40.96;101672.97;5118275;27;47085;-53
2023/10/09 17:05:32;;;;;;;;;11.50;9.00;;;;;23.01;40.81;101667.69;5119297;27;45483;-49
2023/10/09 17:08:01;;;;;;;;;9.50;8.00;;;;;23.03;41.24;101672.88;5116902;27;45673;-51
2023/10/09 17:10:27;;;;;;;;;9.00;8.00;;;;;23.03;40.94;101672.03;5108526;27;45631;-51
2023/10/09 17:12:53;;;;;;;;;10.00;8.00;;;;;23.03;40.82;101664.94;5107475;27;46177;-50
2023/10/09 17:15:19;;;;;;;;;7.75;7.00;;;;;23.03;41.14;101664.09;5108637;27;45392;-54
2023/10/09 17:17:45;;;;;;;;;13.00;9.25;;;;;23.13;41.55;101668.81;5111504;27;45353;-52
2023/10/09 17:20:12;;;;;;;;;12.25;8.00;;;;;23.20;41.30;101671.16;5117588;27;45334;-52
2023/10/09 17:22:38;;;;;;;;;9.25;8.25;;;;;23.22;41.61;101677.19;5096578;27;46223;-52
2023/10/09 17:25:04;;;;;;;;;14.25;6.00;;;;;23.30;41.59;101675.03;5098112;27;45469;-52
2023/10/09 17:27:29;;;;;;;;;9.50;8.50;;;;;23.33;41.82;101669.53;5091562;27;45471;-52
2023/10/09 17:29:57;;;;;;;;;10.50;8.00;;;;;23.38;41.72;101664.00;5119235;27;45396;-52
2023/10/09 17:32:23;;;;;;;;;12.75;7.25;;;;;23.44;41.65;101664.53;5100834;27;47369;-42
2023/10/09 17:34:49;;;;;;;;;7.50;6.00;;;;;23.51;41.42;101669.50;5114273;27;45483;-47
2023/10/09 17:37:14;;;;;;;;;11.25;8.00;;;;;23.54;41.52;101658.72;5106193;27;45474;-45
2023/10/09 17:39:40;;;;;;;;;8.50;8.50;;;;;23.60;41.68;101669.81;5102801;27;45525;-45
2023/10/09 17:42:08;;;;;;;;;10.50;7.00;;;;;23.57;41.59;101658.56;5078489;27;46666;-46
2023/10/09 17:44:34;;;;;;;;;13.75;11.75;;;;;23.55;41.52;101669.25;5099026;27;45262;-46
2023/10/09 17:47:00;;;;;;;;;14.25;9.00;;;;;23.50;41.33;101660.69;5098357;27;45300;-55
2023/10/09 17:49:25;;;;;;;;;11.25;7.75;;;;;23.46;41.33;101667.09;5062699;27;50141;-55
2023/10/09 17:51:51;;;;;;;;;10.00;8.75;;;;;23.42;41.63;101666.44;5098253;27;45399;-53
2023/10/09 17:54:17;;;;;;;;;14.75;12.00;;;;;23.37;42.07;101671.09;5097997;27;45403;-52
2023/10/09 17:56:44;;;;;;;;;14.25;12.00;;;;;23.33;41.92;101672.19;5098034;27;45358;-52
2023/10/09 17:59:11;;;;;;;;;13.50;8.75;;;;;23.31;41.96;101676.72;5097972;27;45523;-55
2023/10/09 18:01:38;;;;;;;;;14.25;10.00;;;;;23.28;41.75;101680.38;5097638;27;45279;-48
2023/10/09 18:04:04;;;;;;;;;11.25;8.25;;;;;23.22;41.68;101672.78;5097816;27;45743;-55
2023/10/09 18:06:30;;;;;;;;;11.00;9.00;;;;;23.20;41.96;101676.47;5097846;27;45276;-53
2023/10/09 18:08:55;;;;;;;;;11.00;9.25;;;;;23.21;41.93;101688.72;5097994;27;45425;-45
2023/10/09 18:11:20;;;;;;;;;10.25;8.00;;;;;23.17;42.53;101677.41;5097911;27;46265;-55
2023/10/09 18:13:46;;;;;;;;;10.25;9.75;;;;;23.14;42.38;101677.59;5097784;27;45405;-56
2023/10/09 18:16:11;;;;;;;;;13.00;9.50;;;;;23.14;42.52;101682.91;5097450;27;48079;-51
2023/10/09 18:18:39;;;;;;;;;10.75;8.50;;;;;23.12;42.74;101680.31;5097884;27;45553;-57
2023/10/09 18:21:08;;;;;;;;;10.25;8.75;;;;;23.10;42.31;101684.81;5097410;27;47350;-55
2023/10/09 18:23:35;;;;;;;;;12.50;10.25;;;;;23.09;42.83;101680.50;5097380;27;45696;-55
2023/10/09 18:26:01;;;;;;;;;9.75;9.75;;;;;23.07;42.55;101679.72;5097555;27;45351;-55
2023/10/09 18:28:28;;;;;;;;;12.75;8.00;;;;;23.07;42.88;101681.50;5097852;27;45510;-48
2023/10/09 18:30:53;;;;;;;;;12.00;10.50;;;;;23.05;42.88;101686.88;5097649;27;46347;-49
2023/10/09 18:33:18;;;;;;;;;12.00;10.75;;;;;23.05;43.25;101686.88;5097458;27;45398;-47
2023/10/09 18:35:44;;;;;;;;;15.75;11.50;;;;;23.05;42.75;101688.66;5097493;27;45400;-54
2023/10/09 18:38:10;;;;;;;;;10.75;9.50;;;;;23.04;42.99;101686.97;5097569;27;45435;-50
2023/10/09 18:40:39;;;;;;;;;15.50;11.00;;;;;23.03;43.21;101691.38;5097081;27;46237;-45
2023/10/09 18:43:04;;;;;;;;;6.00;6.00;;;;;23.00;43.04;101692.41;5097031;27;45787;-50
2023/10/09 18:45:33;;;;;;;;;13.50;9.75;;;;;23.04;43.72;101693.09;5097210;27;45346;-50
2023/10/09 18:48:00;;;;;;;;;16.25;13.00;;;;;23.06;43.73;101693.88;5097461;27;45535;-45
2023/10/09 18:50:25;;;;;;;;;15.00;13.00;;;;;23.10;44.07;101691.91;5085972;27;47697;-48
2023/10/09 18:52:51;;;;;;;;;12.75;11.00;;;;;23.13;43.75;101692.59;5107624;27;51983;-48
2023/10/09 18:55:18;;;;;;;;;15.00;12.75;;;;;23.15;43.67;101696.03;5089979;27;45256;-53
2023/10/09 18:57:48;;;;;;;;;17.00;12.25;;;;;23.19;44.08;101695.88;5095829;27;45343;-54
2023/10/09 19:00:20;;;;;;;;;14.00;11.25;;;;;23.22;44.09;101704.53;5105339;27;46085;-47
2023/10/09 19:02:51;;;;;;;;;15.25;11.25;;;;;23.25;44.15;101695.56;5105976;27;45979;-44
2023/10/09 19:05:19;;;;;;;;;14.75;13.50;;;;;23.27;44.16;101696.34;5069137;27;45312;-47
2023/10/09 19:07:44;;;;;;;;;18.50;14.75;;;;;23.30;43.98;101701.47;5085395;27;45196;-45
2023/10/09 19:10:10;;;;;;;;;15.75;12.50;;;;;23.33;43.91;101708.38;5087902;27;45452;-44
2023/10/09 19:12:40;;;;;;;;;13.00;12.00;;;;;23.35;44.27;101709.16;5078894;27;45351;-49
2023/10/09 19:15:06;;;;;;;;;15.00;12.00;;;;;23.37;44.40;101704.66;5086100;27;45362;-46
2023/10/09 19:17:35;;;;;;;;;15.00;14.50;;;;;23.38;44.39;101703.69;5084104;27;45844;-49
2023/10/09 19:20:10;;;;;;;;;14.00;12.50;;;;;23.42;43.89;101707.88;5083437;27;46044;-44
2023/10/09 19:22:37;;;;;;;;;12.50;11.00;;;;;23.43;43.97;101710.44;5084577;27;45338;-49
2023/10/09 19:25:08;;;;;;;;;12.75;12.25;;;;;23.44;43.72;101706.00;5067651;27;45508;-51
2023/10/09 19:27:35;;;;;;;;;19.00;14.00;;;;;23.47;44.03;101701.41;5069200;27;45435;-49
2023/10/09 19:30:06;;;;;;;;;18.75;15.50;;;;;23.50;43.79;101710.97;5074645;27;47003;-46
2023/10/09 19:32:31;;;;;;;;;16.00;13.75;;;;;23.49;44.24;101705.75;5084798;27;45714;-43
2023/10/09 19:34:56;;;;;;;;;16.00;12.25;;;;;23.52;43.97;101713.53;5086826;27;45326;-45
2023/10/09 19:37:22;;;;;;;;;16.67;14.67;;;;;23.51;44.21;101702.09;5084499;27;50424;-46
2023/10/09 19:39:47;;;;;;;;;14.50;13.00;;;;;23.54;44.17;101707.22;5085446;27;46330;-44
2023/10/09 19:42:12;;;;;;;;;14.25;10.75;;;;;23.53;44.05;101699.38;5086013;27;45161;-56
2023/10/09 19:44:41;;;;;;;;;14.00;11.75;;;;;23.57;44.21;101703.53;5084587;27;45311;-58
2023/10/09 19:47:07;;;;;;;;;16.00;14.25;;;;;23.57;43.78;101699.13;5092450;27;45393;-46
2023/10/09 19:49:32;;;;;;;;;12.00;11.00;;;;;23.59;43.88;101702.50;5095380;27;69030;-48
2023/10/09 19:51:57;;;;;;;;;14.75;13.25;;;;;23.60;44.07;101698.94;5096504;27;45412;-49
2023/10/09 19:54:23;;;;;;;;;14.50;11.75;;;;;23.61;44.12;101702.44;5096113;27;50304;-55
2023/10/09 19:56:49;;;;;;;;;14.25;13.00;;;;;23.61;44.04;101699.81;5096496;27;45501;-56
2023/10/09 19:59:15;;;;;;;;;16.50;13.75;;;;;23.62;44.04;101696.22;5096123;27;45338;-55
2023/10/09 20:01:41;;;;;;;;;14.50;12.00;;;;;23.61;44.22;101697.16;5095719;27;45761;-52
2023/10/09 20:04:06;;;;;;;;;18.75;16.00;;;;;23.62;43.91;101699.72;5078440;27;45343;-55
2023/10/09 20:06:32;;;;;;;;;15.00;13.00;;;;;23.63;43.77;101697.94;5100173;27;45854;-46
2023/10/09 20:08:57;;;;;;;;;15.00;11.75;;;;;23.61;44.25;101694.50;5099785;27;46795;-52
2023/10/09 20:11:23;;;;;;;;;13.00;10.00;;;;;23.60;43.73;101692.81;5090267;27;45402;-48
2023/10/09 20:13:49;;;;;;;;;15.25;14.00;;;;;23.59;44.16;101697.22;5096310;27;45389;-45
2023/10/09 20:16:16;;;;;;;;;15.75;13.00;;;;;23.61;44.34;101705.94;5096005;27;45310;-48
2023/10/09 20:18:43;;;;;;;;;15.00;12.50;;;;;23.58;43.76;101702.59;5078596;27;46984;-50
2023/10/09 20:21:10;;;;;;;;;11.25;9.50;;;;;23.55;43.92;101705.41;5078938;28;46026;-45
2023/10/09 20:23:42;;;;;;;;;17.75;15.50;;;;;23.53;43.88;101709.97;5079200;27;45443;-44
2023/10/09 20:26:11;;;;;;;;;14.50;14.00;;;;;23.51;44.30;101719.78;5081705;27;45460;-45
2023/10/09 20:28:37;;;;;;;;;15.00;12.00;;;;;23.47;44.26;101714.63;5088667;27;46155;-48
2023/10/09 20:31:03;;;;;;;;;14.50;12.50;;;;;23.45;44.06;101711.22;5083370;27;45381;-45